sensor_id;sensor_type;location;lat;lon;timestamp;P1;durP1;ratioP1;P2;durP2;ratioP2
45043;SDS011;30784;48.490;9.688;2023-08-01T00:00:02;6.57;;;2.38;;
45043;SDS011;30784;48.490;9.688;2023-08-01T00:02:30;6.78;;;2.33;;
45043;SDS011;30784;48.490;9.688;2023-08-01T00:04:56;7.57;;;2.65;;
45043;SDS011;30784;48.490;9.688;2023-08-01T00:07:22;6.63;;;2.55;;
45043;SDS011;30784;48.490;9.688;2023-08-01T00:09:47;6.45;;;2.53;;
45043;SDS011;30784;48.490;9.688;2023-08-01T00:12:13;6.18;;;2.20;;
45043;SDS011;30784;48.490;9.688;2023-08-01T00:14:39;6.07;;;2.40;;
45043;SDS011;30784;48.490;9.688;2023-08-01T00:20:27;6.35;;;2.35;;
45043;SDS011;30784;48.490;9.688;2023-08-01T00:22:52;6.82;;;2.30;;
45043;SDS011;30784;48.490;9.688;2023-08-01T00:25:18;6.50;;;2.42;;
45043;SDS011;30784;48.490;9.688;2023-08-01T00:27:44;6.53;;;2.50;;
45043;SDS011;30784;48.490;9.688;2023-08-01T00:30:09;6.30;;;2.30;;
45043;SDS011;30784;48.490;9.688;2023-08-01T00:32:35;6.20;;;2.30;;
45043;SDS011;30784;48.490;9.688;2023-08-01T00:35:02;5.40;;;2.08;;
45043;SDS011;30784;48.490;9.688;2023-08-01T00:37:28;6.15;;;2.30;;
45043;SDS011;30784;48.490;9.688;2023-08-01T00:39:53;6.82;;;2.30;;
45043;SDS011;30784;48.490;9.688;2023-08-01T00:42:19;7.07;;;2.72;;
45043;SDS011;30784;48.490;9.688;2023-08-01T00:44:44;5.90;;;2.13;;
45043;SDS011;30784;48.490;9.688;2023-08-01T00:50:33;6.63;;;2.40;;
45043;SDS011;30784;48.490;9.688;2023-08-01T00:52:59;6.47;;;2.30;;
45043;SDS011;30784;48.490;9.688;2023-08-01T00:55:26;5.80;;;2.28;;
45043;SDS011;30784;48.490;9.688;2023-08-01T00:57:54;6.50;;;2.58;;
45043;SDS011;30784;48.490;9.688;2023-08-01T01:00:19;7.40;;;2.40;;
45043;SDS011;30784;48.490;9.688;2023-08-01T01:02:45;6.03;;;2.20;;
45043;SDS011;30784;48.490;9.688;2023-08-01T01:05:11;5.85;;;2.22;;
45043;SDS011;30784;48.490;9.688;2023-08-01T01:07:38;6.05;;;2.30;;
45043;SDS011;30784;48.490;9.688;2023-08-01T01:10:04;6.65;;;2.40;;
45043;SDS011;30784;48.490;9.688;2023-08-01T01:12:30;7.45;;;2.35;;
45043;SDS011;30784;48.490;9.688;2023-08-01T01:14:55;6.72;;;2.30;;
45043;SDS011;30784;48.490;9.688;2023-08-01T01:17:21;6.43;;;2.28;;
45043;SDS011;30784;48.490;9.688;2023-08-01T01:19:46;6.57;;;2.20;;
45043;SDS011;30784;48.490;9.688;2023-08-01T01:22:12;6.63;;;2.20;;
45043;SDS011;30784;48.490;9.688;2023-08-01T01:24:38;5.90;;;2.25;;
45043;SDS011;30784;48.490;9.688;2023-08-01T01:27:06;7.07;;;2.47;;
45043;SDS011;30784;48.490;9.688;2023-08-01T01:29:32;6.25;;;2.25;;
45043;SDS011;30784;48.490;9.688;2023-08-01T01:32:02;7.00;;;2.40;;
45043;SDS011;30784;48.490;9.688;2023-08-01T01:34:28;6.28;;;2.20;;
45043;SDS011;30784;48.490;9.688;2023-08-01T01:40:16;6.68;;;2.33;;
45043;SDS011;30784;48.490;9.688;2023-08-01T01:42:41;6.15;;;2.30;;
45043;SDS011;30784;48.490;9.688;2023-08-01T01:45:07;8.18;;;2.70;;
45043;SDS011;30784;48.490;9.688;2023-08-01T01:47:33;7.85;;;2.83;;
45043;SDS011;30784;48.490;9.688;2023-08-01T01:49:58;5.97;;;2.10;;
45043;SDS011;30784;48.490;9.688;2023-08-01T01:52:24;6.00;;;2.20;;
45043;SDS011;30784;48.490;9.688;2023-08-01T01:54:49;6.82;;;2.28;;
45043;SDS011;30784;48.490;9.688;2023-08-01T01:57:15;6.05;;;2.30;;
45043;SDS011;30784;48.490;9.688;2023-08-01T01:59:40;5.85;;;2.10;;
45043;SDS011;30784;48.490;9.688;2023-08-01T02:02:06;6.70;;;2.13;;
45043;SDS011;30784;48.490;9.688;2023-08-01T02:04:31;5.60;;;2.10;;
45043;SDS011;30784;48.490;9.688;2023-08-01T02:06:57;7.05;;;2.50;;
45043;SDS011;30784;48.490;9.688;2023-08-01T02:09:22;7.50;;;2.38;;
45043;SDS011;30784;48.490;9.688;2023-08-01T02:11:48;6.40;;;2.17;;
45043;SDS011;30784;48.490;9.688;2023-08-01T02:14:14;7.13;;;2.30;;
45043;SDS011;30784;48.490;9.688;2023-08-01T02:16:39;6.50;;;2.25;;
45043;SDS011;30784;48.490;9.688;2023-08-01T02:19:05;6.15;;;2.30;;
45043;SDS011;30784;48.490;9.688;2023-08-01T02:21:30;7.60;;;2.47;;
45043;SDS011;30784;48.490;9.688;2023-08-01T02:23:56;6.65;;;2.38;;
45043;SDS011;30784;48.490;9.688;2023-08-01T02:26:21;6.15;;;2.20;;
45043;SDS011;30784;48.490;9.688;2023-08-01T02:28:49;6.78;;;2.47;;
45043;SDS011;30784;48.490;9.688;2023-08-01T02:31:15;6.50;;;2.60;;
45043;SDS011;30784;48.490;9.688;2023-08-01T02:33:41;6.97;;;2.40;;
45043;SDS011;30784;48.490;9.688;2023-08-01T02:36:06;7.07;;;2.75;;
45043;SDS011;30784;48.490;9.688;2023-08-01T02:38:32;6.55;;;2.60;;
45043;SDS011;30784;48.490;9.688;2023-08-01T02:40:57;7.72;;;2.70;;
45043;SDS011;30784;48.490;9.688;2023-08-01T02:43:23;6.05;;;2.25;;
45043;SDS011;30784;48.490;9.688;2023-08-01T02:45:48;7.25;;;2.65;;
45043;SDS011;30784;48.490;9.688;2023-08-01T02:48:14;6.88;;;2.40;;
45043;SDS011;30784;48.490;9.688;2023-08-01T02:50:39;5.85;;;2.10;;
45043;SDS011;30784;48.490;9.688;2023-08-01T02:53:05;6.75;;;2.70;;
45043;SDS011;30784;48.490;9.688;2023-08-01T02:55:31;7.78;;;2.70;;
45043;SDS011;30784;48.490;9.688;2023-08-01T02:57:56;7.10;;;2.40;;
45043;SDS011;30784;48.490;9.688;2023-08-01T03:00:22;6.47;;;2.60;;
45043;SDS011;30784;48.490;9.688;2023-08-01T03:02:47;8.43;;;2.80;;
45043;SDS011;30784;48.490;9.688;2023-08-01T03:05:13;6.40;;;2.55;;
45043;SDS011;30784;48.490;9.688;2023-08-01T03:07:38;6.53;;;2.30;;
45043;SDS011;30784;48.490;9.688;2023-08-01T03:10:04;6.78;;;2.22;;
45043;SDS011;30784;48.490;9.688;2023-08-01T03:12:31;7.40;;;2.53;;
45043;SDS011;30784;48.490;9.688;2023-08-01T03:14:57;6.38;;;2.05;;
45043;SDS011;30784;48.490;9.688;2023-08-01T03:17:23;7.90;;;2.45;;
45043;SDS011;30784;48.490;9.688;2023-08-01T03:19:48;7.63;;;2.47;;
45043;SDS011;30784;48.490;9.688;2023-08-01T03:22:14;8.40;;;2.80;;
45043;SDS011;30784;48.490;9.688;2023-08-01T03:24:40;6.93;;;2.50;;
45043;SDS011;30784;48.490;9.688;2023-08-01T03:27:05;7.22;;;2.22;;
45043;SDS011;30784;48.490;9.688;2023-08-01T03:29:31;6.63;;;2.40;;
45043;SDS011;30784;48.490;9.688;2023-08-01T03:31:56;7.75;;;2.53;;
45043;SDS011;30784;48.490;9.688;2023-08-01T03:34:22;7.22;;;2.50;;
45043;SDS011;30784;48.490;9.688;2023-08-01T03:36:47;5.30;;;2.22;;
45043;SDS011;30784;48.490;9.688;2023-08-01T03:39:13;6.70;;;2.10;;
45043;SDS011;30784;48.490;9.688;2023-08-01T03:41:39;6.47;;;2.25;;
45043;SDS011;30784;48.490;9.688;2023-08-01T03:44:05;6.22;;;2.30;;
45043;SDS011;30784;48.490;9.688;2023-08-01T03:46:30;6.78;;;2.65;;
45043;SDS011;30784;48.490;9.688;2023-08-01T03:48:56;7.35;;;2.40;;
45043;SDS011;30784;48.490;9.688;2023-08-01T03:51:21;6.18;;;2.20;;
45043;SDS011;30784;48.490;9.688;2023-08-01T03:53:47;6.25;;;2.20;;
45043;SDS011;30784;48.490;9.688;2023-08-01T03:56:13;7.35;;;2.40;;
45043;SDS011;30784;48.490;9.688;2023-08-01T03:58:38;6.75;;;2.22;;
45043;SDS011;30784;48.490;9.688;2023-08-01T04:01:04;5.68;;;1.98;;
45043;SDS011;30784;48.490;9.688;2023-08-01T04:03:31;7.15;;;2.47;;
45043;SDS011;30784;48.490;9.688;2023-08-01T04:05:57;6.22;;;2.33;;
45043;SDS011;30784;48.490;9.688;2023-08-01T04:08:22;6.55;;;2.42;;
45043;SDS011;30784;48.490;9.688;2023-08-01T04:10:48;7.15;;;2.53;;
45043;SDS011;30784;48.490;9.688;2023-08-01T04:13:15;7.07;;;2.33;;
45043;SDS011;30784;48.490;9.688;2023-08-01T04:15:40;6.63;;;2.65;;
45043;SDS011;30784;48.490;9.688;2023-08-01T04:18:06;7.70;;;2.55;;
45043;SDS011;30784;48.490;9.688;2023-08-01T04:20:31;6.40;;;2.33;;
45043;SDS011;30784;48.490;9.688;2023-08-01T04:22:57;5.53;;;2.00;;
45043;SDS011;30784;48.490;9.688;2023-08-01T04:25:22;6.97;;;2.40;;
45043;SDS011;30784;48.490;9.688;2023-08-01T04:27:49;5.82;;;2.17;;
45043;SDS011;30784;48.490;9.688;2023-08-01T04:30:15;7.38;;;2.45;;
45043;SDS011;30784;48.490;9.688;2023-08-01T04:32:41;6.40;;;2.67;;
45043;SDS011;30784;48.490;9.688;2023-08-01T04:35:06;6.53;;;2.28;;
45043;SDS011;30784;48.490;9.688;2023-08-01T04:37:32;8.85;;;2.13;;
45043;SDS011;30784;48.490;9.688;2023-08-01T04:39:58;7.50;;;2.20;;
45043;SDS011;30784;48.490;9.688;2023-08-01T04:42:23;6.63;;;2.30;;
45043;SDS011;30784;48.490;9.688;2023-08-01T04:44:49;7.10;;;2.58;;
45043;SDS011;30784;48.490;9.688;2023-08-01T04:47:14;6.50;;;2.33;;
45043;SDS011;30784;48.490;9.688;2023-08-01T04:49:40;6.38;;;2.35;;
45043;SDS011;30784;48.490;9.688;2023-08-01T04:52:06;6.05;;;2.17;;
45043;SDS011;30784;48.490;9.688;2023-08-01T04:54:32;6.35;;;2.45;;
45043;SDS011;30784;48.490;9.688;2023-08-01T04:56:57;7.03;;;2.42;;
45043;SDS011;30784;48.490;9.688;2023-08-01T04:59:23;6.50;;;2.30;;
45043;SDS011;30784;48.490;9.688;2023-08-01T05:01:48;7.45;;;2.53;;
45043;SDS011;30784;48.490;9.688;2023-08-01T05:04:14;6.22;;;2.45;;
45043;SDS011;30784;48.490;9.688;2023-08-01T05:06:40;7.57;;;2.70;;
45043;SDS011;30784;48.490;9.688;2023-08-01T05:09:05;7.85;;;2.78;;
45043;SDS011;30784;48.490;9.688;2023-08-01T05:11:31;6.65;;;2.70;;
45043;SDS011;30784;48.490;9.688;2023-08-01T05:13:57;7.63;;;2.83;;
45043;SDS011;30784;48.490;9.688;2023-08-01T05:16:23;7.35;;;2.72;;
45043;SDS011;30784;48.490;9.688;2023-08-01T05:18:48;8.35;;;2.90;;
45043;SDS011;30784;48.490;9.688;2023-08-01T05:21:14;7.05;;;2.53;;
45043;SDS011;30784;48.490;9.688;2023-08-01T05:23:39;8.07;;;2.95;;
45043;SDS011;30784;48.490;9.688;2023-08-01T05:26:05;7.13;;;2.60;;
45043;SDS011;30784;48.490;9.688;2023-08-01T05:28:30;6.85;;;2.50;;
45043;SDS011;30784;48.490;9.688;2023-08-01T05:30:56;6.85;;;2.72;;
45043;SDS011;30784;48.490;9.688;2023-08-01T05:33:21;7.78;;;2.80;;
45043;SDS011;30784;48.490;9.688;2023-08-01T05:35:48;7.70;;;2.97;;
45043;SDS011;30784;48.490;9.688;2023-08-01T05:38:14;7.30;;;3.08;;
45043;SDS011;30784;48.490;9.688;2023-08-01T05:40:39;8.20;;;2.90;;
45043;SDS011;30784;48.490;9.688;2023-08-01T05:43:05;7.55;;;2.85;;
45043;SDS011;30784;48.490;9.688;2023-08-01T05:45:33;8.05;;;3.10;;
45043;SDS011;30784;48.490;9.688;2023-08-01T05:48:00;8.15;;;3.10;;
45043;SDS011;30784;48.490;9.688;2023-08-01T05:50:26;7.43;;;2.90;;
45043;SDS011;30784;48.490;9.688;2023-08-01T05:52:51;8.27;;;3.08;;
45043;SDS011;30784;48.490;9.688;2023-08-01T05:55:17;8.27;;;2.92;;
45043;SDS011;30784;48.490;9.688;2023-08-01T05:57:42;7.78;;;2.88;;
45043;SDS011;30784;48.490;9.688;2023-08-01T06:00:08;7.45;;;3.00;;
45043;SDS011;30784;48.490;9.688;2023-08-01T06:02:34;7.90;;;2.90;;
45043;SDS011;30784;48.490;9.688;2023-08-01T06:04:59;7.07;;;2.50;;
45043;SDS011;30784;48.490;9.688;2023-08-01T06:07:25;7.47;;;2.75;;
45043;SDS011;30784;48.490;9.688;2023-08-01T06:09:51;7.65;;;2.80;;
45043;SDS011;30784;48.490;9.688;2023-08-01T06:12:17;6.95;;;2.50;;
45043;SDS011;30784;48.490;9.688;2023-08-01T06:14:43;6.82;;;2.70;;
45043;SDS011;30784;48.490;9.688;2023-08-01T06:17:08;9.13;;;2.60;;
45043;SDS011;30784;48.490;9.688;2023-08-01T06:19:34;6.65;;;2.58;;
45043;SDS011;30784;48.490;9.688;2023-08-01T06:21:59;7.90;;;2.63;;
45043;SDS011;30784;48.490;9.688;2023-08-01T06:24:25;6.85;;;2.95;;
45043;SDS011;30784;48.490;9.688;2023-08-01T06:26:51;6.28;;;2.50;;
45043;SDS011;30784;48.490;9.688;2023-08-01T06:29:16;7.30;;;2.75;;
45043;SDS011;30784;48.490;9.688;2023-08-01T06:31:41;7.93;;;2.65;;
45043;SDS011;30784;48.490;9.688;2023-08-01T06:34:07;6.78;;;2.80;;
45043;SDS011;30784;48.490;9.688;2023-08-01T06:36:32;7.70;;;2.90;;
45043;SDS011;30784;48.490;9.688;2023-08-01T06:38:58;7.22;;;2.80;;
45043;SDS011;30784;48.490;9.688;2023-08-01T06:41:24;7.85;;;2.90;;
45043;SDS011;30784;48.490;9.688;2023-08-01T06:43:49;7.35;;;2.90;;
45043;SDS011;30784;48.490;9.688;2023-08-01T06:46:15;7.85;;;3.10;;
45043;SDS011;30784;48.490;9.688;2023-08-01T06:48:40;7.15;;;3.17;;
45043;SDS011;30784;48.490;9.688;2023-08-01T06:51:06;7.97;;;3.28;;
45043;SDS011;30784;48.490;9.688;2023-08-01T06:53:31;7.28;;;3.17;;
45043;SDS011;30784;48.490;9.688;2023-08-01T06:55:57;7.18;;;3.08;;
45043;SDS011;30784;48.490;9.688;2023-08-01T06:58:22;7.03;;;2.83;;
45043;SDS011;30784;48.490;9.688;2023-08-01T07:00:48;8.07;;;3.45;;
45043;SDS011;30784;48.490;9.688;2023-08-01T07:03:13;7.05;;;2.83;;
45043;SDS011;30784;48.490;9.688;2023-08-01T07:05:39;7.28;;;3.00;;
45043;SDS011;30784;48.490;9.688;2023-08-01T07:08:04;9.07;;;3.28;;
45043;SDS011;30784;48.490;9.688;2023-08-01T07:10:30;7.88;;;3.00;;
45043;SDS011;30784;48.490;9.688;2023-08-01T07:12:59;7.30;;;3.03;;
45043;SDS011;30784;48.490;9.688;2023-08-01T07:15:28;8.85;;;3.35;;
45043;SDS011;30784;48.490;9.688;2023-08-01T07:17:54;8.27;;;3.35;;
45043;SDS011;30784;48.490;9.688;2023-08-01T07:20:19;7.38;;;3.10;;
45043;SDS011;30784;48.490;9.688;2023-08-01T07:22:45;8.63;;;3.50;;
45043;SDS011;30784;48.490;9.688;2023-08-01T07:25:10;7.38;;;3.40;;
45043;SDS011;30784;48.490;9.688;2023-08-01T07:27:36;8.68;;;3.20;;
45043;SDS011;30784;48.490;9.688;2023-08-01T07:30:02;8.15;;;3.20;;
45043;SDS011;30784;48.490;9.688;2023-08-01T07:32:29;7.53;;;2.75;;
45043;SDS011;30784;48.490;9.688;2023-08-01T07:34:54;7.72;;;3.00;;
45043;SDS011;30784;48.490;9.688;2023-08-01T07:37:20;8.40;;;3.10;;
45043;SDS011;30784;48.490;9.688;2023-08-01T07:39:46;7.13;;;2.95;;
45043;SDS011;30784;48.490;9.688;2023-08-01T07:42:11;7.47;;;3.20;;
45043;SDS011;30784;48.490;9.688;2023-08-01T07:44:37;7.05;;;3.00;;
45043;SDS011;30784;48.490;9.688;2023-08-01T07:47:02;6.97;;;2.78;;
45043;SDS011;30784;48.490;9.688;2023-08-01T07:49:28;7.10;;;2.80;;
45043;SDS011;30784;48.490;9.688;2023-08-01T07:51:53;7.38;;;3.15;;
45043;SDS011;30784;48.490;9.688;2023-08-01T07:54:19;7.07;;;2.60;;
45043;SDS011;30784;48.490;9.688;2023-08-01T07:56:44;6.97;;;2.55;;
45043;SDS011;30784;48.490;9.688;2023-08-01T07:59:13;7.45;;;2.95;;
45043;SDS011;30784;48.490;9.688;2023-08-01T08:01:39;6.50;;;2.70;;
45043;SDS011;30784;48.490;9.688;2023-08-01T08:04:05;7.22;;;2.65;;
45043;SDS011;30784;48.490;9.688;2023-08-01T08:06:30;6.63;;;2.80;;
45043;SDS011;30784;48.490;9.688;2023-08-01T08:08:56;7.38;;;2.90;;
45043;SDS011;30784;48.490;9.688;2023-08-01T08:11:22;7.53;;;2.75;;
45043;SDS011;30784;48.490;9.688;2023-08-01T08:13:48;7.00;;;2.72;;
45043;SDS011;30784;48.490;9.688;2023-08-01T08:16:14;7.53;;;3.10;;
45043;SDS011;30784;48.490;9.688;2023-08-01T08:18:39;6.50;;;2.80;;
45043;SDS011;30784;48.490;9.688;2023-08-01T08:21:05;8.30;;;2.85;;
45043;SDS011;30784;48.490;9.688;2023-08-01T08:23:30;7.13;;;3.08;;
45043;SDS011;30784;48.490;9.688;2023-08-01T08:25:56;7.60;;;3.50;;
45043;SDS011;30784;48.490;9.688;2023-08-01T08:28:28;8.43;;;3.22;;
45043;SDS011;30784;48.490;9.688;2023-08-01T08:30:55;10.13;;;3.13;;
45043;SDS011;30784;48.490;9.688;2023-08-01T08:33:20;8.02;;;3.35;;
45043;SDS011;30784;48.490;9.688;2023-08-01T08:35:46;8.02;;;3.50;;
45043;SDS011;30784;48.490;9.688;2023-08-01T08:38:12;7.50;;;3.28;;
45043;SDS011;30784;48.490;9.688;2023-08-01T08:40:38;7.30;;;2.90;;
45043;SDS011;30784;48.490;9.688;2023-08-01T08:43:06;8.02;;;3.30;;
45043;SDS011;30784;48.490;9.688;2023-08-01T08:45:34;8.00;;;3.00;;
45043;SDS011;30784;48.490;9.688;2023-08-01T08:48:01;7.45;;;3.00;;
45043;SDS011;30784;48.490;9.688;2023-08-01T08:50:32;7.70;;;2.90;;
45043;SDS011;30784;48.490;9.688;2023-08-01T08:53:00;7.15;;;2.90;;
45043;SDS011;30784;48.490;9.688;2023-08-01T08:55:26;7.03;;;2.83;;
45043;SDS011;30784;48.490;9.688;2023-08-01T08:57:53;6.82;;;2.47;;
45043;SDS011;30784;48.490;9.688;2023-08-01T09:00:20;7.60;;;3.20;;
45043;SDS011;30784;48.490;9.688;2023-08-01T09:02:46;6.18;;;2.42;;
45043;SDS011;30784;48.490;9.688;2023-08-01T09:05:12;6.75;;;2.70;;
45043;SDS011;30784;48.490;9.688;2023-08-01T09:07:39;6.60;;;2.55;;
45043;SDS011;30784;48.490;9.688;2023-08-01T09:10:07;7.20;;;2.80;;
45043;SDS011;30784;48.490;9.688;2023-08-01T09:12:34;6.65;;;2.53;;
45043;SDS011;30784;48.490;9.688;2023-08-01T09:15:00;5.70;;;2.25;;
45043;SDS011;30784;48.490;9.688;2023-08-01T09:17:25;6.00;;;2.25;;
45043;SDS011;30784;48.490;9.688;2023-08-01T09:20:04;6.35;;;2.30;;
45043;SDS011;30784;48.490;9.688;2023-08-01T09:22:40;6.03;;;2.30;;
45043;SDS011;30784;48.490;9.688;2023-08-01T09:25:07;5.65;;;1.70;;
45043;SDS011;30784;48.490;9.688;2023-08-01T09:27:33;5.50;;;1.88;;
45043;SDS011;30784;48.490;9.688;2023-08-01T09:30:09;5.97;;;1.70;;
45043;SDS011;30784;48.490;9.688;2023-08-01T09:32:36;4.53;;;1.63;;
45043;SDS011;30784;48.490;9.688;2023-08-01T09:35:03;5.00;;;1.50;;
45043;SDS011;30784;48.490;9.688;2023-08-01T09:37:41;5.82;;;1.98;;
45043;SDS011;30784;48.490;9.688;2023-08-01T09:40:08;5.60;;;1.83;;
45043;SDS011;30784;48.490;9.688;2023-08-01T09:42:38;6.07;;;1.77;;
45043;SDS011;30784;48.490;9.688;2023-08-01T09:45:14;5.43;;;1.80;;
45043;SDS011;30784;48.490;9.688;2023-08-01T09:47:41;4.45;;;1.60;;
45043;SDS011;30784;48.490;9.688;2023-08-01T09:50:08;5.70;;;1.75;;
45043;SDS011;30784;48.490;9.688;2023-08-01T09:52:35;4.78;;;1.65;;
45043;SDS011;30784;48.490;9.688;2023-08-01T09:55:01;5.28;;;1.70;;
45043;SDS011;30784;48.490;9.688;2023-08-01T09:57:28;4.63;;;1.48;;
45043;SDS011;30784;48.490;9.688;2023-08-01T09:59:58;5.30;;;1.80;;
45043;SDS011;30784;48.490;9.688;2023-08-01T10:02:24;6.97;;;2.03;;
45043;SDS011;30784;48.490;9.688;2023-08-01T10:04:52;5.63;;;1.58;;
45043;SDS011;30784;48.490;9.688;2023-08-01T10:07:20;6.10;;;1.60;;
45043;SDS011;30784;48.490;9.688;2023-08-01T10:12:15;5.95;;;1.90;;
45043;SDS011;30784;48.490;9.688;2023-08-01T10:14:43;5.53;;;1.90;;
45043;SDS011;30784;48.490;9.688;2023-08-01T10:17:10;5.95;;;2.10;;
45043;SDS011;30784;48.490;9.688;2023-08-01T10:19:36;5.20;;;1.88;;
45043;SDS011;30784;48.490;9.688;2023-08-01T10:22:03;7.55;;;2.90;;
45043;SDS011;30784;48.490;9.688;2023-08-01T10:24:31;6.25;;;2.38;;
45043;SDS011;30784;48.490;9.688;2023-08-01T10:26:57;5.05;;;1.80;;
45043;SDS011;30784;48.490;9.688;2023-08-01T10:29:36;5.25;;;1.60;;
45043;SDS011;30784;48.490;9.688;2023-08-01T10:32:01;5.20;;;1.98;;
45043;SDS011;30784;48.490;9.688;2023-08-01T10:34:27;4.53;;;1.60;;
45043;SDS011;30784;48.490;9.688;2023-08-01T10:36:56;8.02;;;2.05;;
45043;SDS011;30784;48.490;9.688;2023-08-01T10:39:23;5.07;;;1.70;;
45043;SDS011;30784;48.490;9.688;2023-08-01T10:41:56;5.15;;;1.75;;
45043;SDS011;30784;48.490;9.688;2023-08-01T10:44:24;6.07;;;1.95;;
45043;SDS011;30784;48.490;9.688;2023-08-01T10:46:56;5.85;;;2.00;;
45043;SDS011;30784;48.490;9.688;2023-08-01T10:49:37;4.25;;;1.40;;
45043;SDS011;30784;48.490;9.688;2023-08-01T10:54:41;4.22;;;1.30;;
45043;SDS011;30784;48.490;9.688;2023-08-01T10:57:07;3.88;;;1.30;;
45043;SDS011;30784;48.490;9.688;2023-08-01T10:59:33;3.05;;;1.00;;
45043;SDS011;30784;48.490;9.688;2023-08-01T11:01:59;2.78;;;0.88;;
45043;SDS011;30784;48.490;9.688;2023-08-01T11:04:26;2.28;;;0.77;;
45043;SDS011;30784;48.490;9.688;2023-08-01T11:06:52;3.15;;;0.90;;
45043;SDS011;30784;48.490;9.688;2023-08-01T11:09:23;3.00;;;1.00;;
45043;SDS011;30784;48.490;9.688;2023-08-01T11:11:51;1.90;;;0.65;;
45043;SDS011;30784;48.490;9.688;2023-08-01T11:14:25;1.80;;;0.70;;
45043;SDS011;30784;48.490;9.688;2023-08-01T11:16:53;2.10;;;0.70;;
45043;SDS011;30784;48.490;9.688;2023-08-01T11:19:29;2.35;;;0.68;;
45043;SDS011;30784;48.490;9.688;2023-08-01T11:21:56;2.65;;;0.60;;
45043;SDS011;30784;48.490;9.688;2023-08-01T11:24:22;1.70;;;0.60;;
45043;SDS011;30784;48.490;9.688;2023-08-01T11:26:49;1.60;;;0.70;;
45043;SDS011;30784;48.490;9.688;2023-08-01T11:29:17;2.03;;;0.63;;
45043;SDS011;30784;48.490;9.688;2023-08-01T11:31:55;2.00;;;0.70;;
45043;SDS011;30784;48.490;9.688;2023-08-01T11:36:48;2.60;;;0.90;;
45043;SDS011;30784;48.490;9.688;2023-08-01T11:39:15;2.55;;;0.88;;
45043;SDS011;30784;48.490;9.688;2023-08-01T11:41:42;3.40;;;0.98;;
45043;SDS011;30784;48.490;9.688;2023-08-01T11:44:08;3.15;;;1.27;;
45043;SDS011;30784;48.490;9.688;2023-08-01T11:46:35;4.72;;;1.27;;
45043;SDS011;30784;48.490;9.688;2023-08-01T11:49:02;3.75;;;1.10;;
45043;SDS011;30784;48.490;9.688;2023-08-01T11:51:28;3.60;;;1.05;;
45043;SDS011;30784;48.490;9.688;2023-08-01T11:54:01;2.38;;;0.85;;
45043;SDS011;30784;48.490;9.688;2023-08-01T11:56:29;2.72;;;0.90;;
45043;SDS011;30784;48.490;9.688;2023-08-01T11:58:55;2.60;;;0.85;;
45043;SDS011;30784;48.490;9.688;2023-08-01T12:01:21;2.45;;;0.82;;
45043;SDS011;30784;48.490;9.688;2023-08-01T12:06:21;3.15;;;0.85;;
45043;SDS011;30784;48.490;9.688;2023-08-01T12:08:50;1.73;;;0.70;;
45043;SDS011;30784;48.490;9.688;2023-08-01T12:13:45;2.00;;;0.70;;
45043;SDS011;30784;48.490;9.688;2023-08-01T12:16:12;2.58;;;0.73;;
45043;SDS011;30784;48.490;9.688;2023-08-01T12:18:40;3.50;;;0.73;;
45043;SDS011;30784;48.490;9.688;2023-08-01T12:21:07;2.20;;;0.73;;
45043;SDS011;30784;48.490;9.688;2023-08-01T12:23:33;2.60;;;0.88;;
45043;SDS011;30784;48.490;9.688;2023-08-01T12:25:58;2.55;;;0.80;;
45043;SDS011;30784;48.490;9.688;2023-08-01T12:28:24;2.60;;;0.90;;
45043;SDS011;30784;48.490;9.688;2023-08-01T12:30:49;2.20;;;0.68;;
45043;SDS011;30784;48.490;9.688;2023-08-01T12:33:16;2.22;;;0.85;;
45043;SDS011;30784;48.490;9.688;2023-08-01T12:35:42;2.45;;;0.80;;
45043;SDS011;30784;48.490;9.688;2023-08-01T12:38:08;1.58;;;0.70;;
45043;SDS011;30784;48.490;9.688;2023-08-01T12:40:34;2.58;;;0.80;;
45043;SDS011;30784;48.490;9.688;2023-08-01T12:42:59;2.78;;;1.05;;
45043;SDS011;30784;48.490;9.688;2023-08-01T12:45:25;3.50;;;1.02;;
45043;SDS011;30784;48.490;9.688;2023-08-01T12:47:50;3.03;;;1.05;;
45043;SDS011;30784;48.490;9.688;2023-08-01T12:50:16;1.67;;;0.77;;
45043;SDS011;30784;48.490;9.688;2023-08-01T12:52:41;4.43;;;0.90;;
45043;SDS011;30784;48.490;9.688;2023-08-01T12:55:07;2.45;;;0.85;;
45043;SDS011;30784;48.490;9.688;2023-08-01T12:57:33;2.95;;;0.88;;
45043;SDS011;30784;48.490;9.688;2023-08-01T12:59:59;3.38;;;1.10;;
45043;SDS011;30784;48.490;9.688;2023-08-01T13:02:26;4.43;;;0.95;;
45043;SDS011;30784;48.490;9.688;2023-08-01T13:04:51;2.72;;;0.90;;
45043;SDS011;30784;48.490;9.688;2023-08-01T13:07:17;3.15;;;0.90;;
45043;SDS011;30784;48.490;9.688;2023-08-01T13:09:43;3.58;;;1.20;;
45043;SDS011;30784;48.490;9.688;2023-08-01T13:12:08;3.00;;;1.00;;
45043;SDS011;30784;48.490;9.688;2023-08-01T13:14:34;1.63;;;0.75;;
45043;SDS011;30784;48.490;9.688;2023-08-01T13:16:59;4.00;;;1.30;;
45043;SDS011;30784;48.490;9.688;2023-08-01T13:19:25;3.58;;;1.33;;
45043;SDS011;30784;48.490;9.688;2023-08-01T13:21:51;3.17;;;1.00;;
45043;SDS011;30784;48.490;9.688;2023-08-01T13:24:16;2.88;;;0.80;;
45043;SDS011;30784;48.490;9.688;2023-08-01T13:26:42;2.60;;;0.70;;
45043;SDS011;30784;48.490;9.688;2023-08-01T13:29:07;2.97;;;0.85;;
45043;SDS011;30784;48.490;9.688;2023-08-01T13:31:33;2.17;;;0.90;;
45043;SDS011;30784;48.490;9.688;2023-08-01T13:33:58;3.33;;;0.98;;
45043;SDS011;30784;48.490;9.688;2023-08-01T13:36:24;3.20;;;1.10;;
45043;SDS011;30784;48.490;9.688;2023-08-01T13:38:50;2.17;;;0.90;;
45043;SDS011;30784;48.490;9.688;2023-08-01T13:41:15;3.15;;;1.08;;
45043;SDS011;30784;48.490;9.688;2023-08-01T13:43:41;3.10;;;0.82;;
45043;SDS011;30784;48.490;9.688;2023-08-01T13:46:14;4.03;;;1.10;;
45043;SDS011;30784;48.490;9.688;2023-08-01T13:48:41;2.47;;;0.80;;
45043;SDS011;30784;48.490;9.688;2023-08-01T13:51:10;3.15;;;0.80;;
45043;SDS011;30784;48.490;9.688;2023-08-01T13:53:36;2.33;;;0.90;;
45043;SDS011;30784;48.490;9.688;2023-08-01T13:56:11;2.33;;;0.80;;
45043;SDS011;30784;48.490;9.688;2023-08-01T13:58:38;2.60;;;0.70;;
45043;SDS011;30784;48.490;9.688;2023-08-01T14:01:05;3.05;;;0.88;;
45043;SDS011;30784;48.490;9.688;2023-08-01T14:03:32;2.45;;;0.82;;
45043;SDS011;30784;48.490;9.688;2023-08-01T14:06:05;2.40;;;0.75;;
45043;SDS011;30784;48.490;9.688;2023-08-01T14:08:31;2.17;;;0.70;;
45043;SDS011;30784;48.490;9.688;2023-08-01T14:10:57;2.78;;;0.85;;
45043;SDS011;30784;48.490;9.688;2023-08-01T14:13:23;2.15;;;0.70;;
45043;SDS011;30784;48.490;9.688;2023-08-01T14:15:48;2.80;;;0.80;;
45043;SDS011;30784;48.490;9.688;2023-08-01T14:18:14;2.17;;;0.80;;
45043;SDS011;30784;48.490;9.688;2023-08-01T14:20:40;2.78;;;0.93;;
45043;SDS011;30784;48.490;9.688;2023-08-01T14:23:05;3.05;;;0.65;;
45043;SDS011;30784;48.490;9.688;2023-08-01T14:25:31;3.95;;;0.88;;
45043;SDS011;30784;48.490;9.688;2023-08-01T14:27:56;3.13;;;0.90;;
45043;SDS011;30784;48.490;9.688;2023-08-01T14:30:22;2.13;;;0.73;;
45043;SDS011;30784;48.490;9.688;2023-08-01T14:32:47;2.55;;;0.80;;
45043;SDS011;30784;48.490;9.688;2023-08-01T14:35:13;2.95;;;0.77;;
45043;SDS011;30784;48.490;9.688;2023-08-01T14:37:38;2.00;;;0.70;;
45043;SDS011;30784;48.490;9.688;2023-08-01T14:40:07;2.25;;;0.80;;
45043;SDS011;30784;48.490;9.688;2023-08-01T14:42:33;2.40;;;1.00;;
45043;SDS011;30784;48.490;9.688;2023-08-01T14:44:58;1.75;;;0.70;;
45043;SDS011;30784;48.490;9.688;2023-08-01T14:47:24;2.88;;;0.88;;
45043;SDS011;30784;48.490;9.688;2023-08-01T14:49:50;2.00;;;0.70;;
45043;SDS011;30784;48.490;9.688;2023-08-01T14:52:15;2.63;;;0.80;;
45043;SDS011;30784;48.490;9.688;2023-08-01T14:54:41;2.55;;;0.98;;
45043;SDS011;30784;48.490;9.688;2023-08-01T14:57:07;3.25;;;0.90;;
45043;SDS011;30784;48.490;9.688;2023-08-01T14:59:33;3.28;;;0.73;;
45043;SDS011;30784;48.490;9.688;2023-08-01T15:01:58;2.38;;;0.80;;
45043;SDS011;30784;48.490;9.688;2023-08-01T15:04:24;3.10;;;0.93;;